createdAt,value
2022-08-22T00:00:37.692Z,2.37
2022-08-22T00:02:46.131Z,1.40
2022-08-22T00:03:09.413Z,2.40
2022-08-22T00:06:02.280Z,1.93
2022-08-22T00:08:47.271Z,2.10
2022-08-22T00:11:32.662Z,2.40
2022-08-22T00:14:43.534Z,2.30
2022-08-22T00:17:38.068Z,2.07
2022-08-22T00:20:08.981Z,1.80
2022-08-22T00:23:03.046Z,2.03
2022-08-22T00:25:42.738Z,2.20
2022-08-22T00:28:22.995Z,2.30
2022-08-22T00:31:01.757Z,2.50
2022-08-22T00:34:01.973Z,2.40
2022-08-22T00:36:47.934Z,2.13
2022-08-22T00:39:22.339Z,1.97
2022-08-22T00:42:01.608Z,3.07
2022-08-22T00:45:11.461Z,2.60
2022-08-22T00:48:10.929Z,1.73
2022-08-22T00:51:09.538Z,2.03
2022-08-22T00:53:57.760Z,2.40
2022-08-22T00:56:39.666Z,2.17
2022-08-22T00:59:23.516Z,1.90
2022-08-22T01:01:56.846Z,1.93
2022-08-22T01:04:45.805Z,1.80
2022-08-22T01:07:45.758Z,2.20
2022-08-22T01:10:31.885Z,2.27
2022-08-22T01:13:04.633Z,2.10
2022-08-22T01:15:35.252Z,2.10
2022-08-22T01:18:21.164Z,1.97
2022-08-22T01:21:24.375Z,2.00
2022-08-22T01:24:18.800Z,2.20
2022-08-22T01:27:04.966Z,1.90
2022-08-22T01:29:45.175Z,1.73
2022-08-22T01:32:58.146Z,1.90
2022-08-22T01:36:00.379Z,1.83
2022-08-22T01:38:52.134Z,1.80
2022-08-22T01:41:26.551Z,1.77
2022-08-22T01:44:03.111Z,2.00
2022-08-22T01:46:58.829Z,1.90
2022-08-22T01:49:51.569Z,1.90
2022-08-22T01:52:52.950Z,2.10
2022-08-22T01:55:35.489Z,2.10
2022-08-22T01:58:14.159Z,2.40
2022-08-22T02:00:55.620Z,1.77
2022-08-22T02:03:35.451Z,2.10
2022-08-22T02:06:05.048Z,1.80
2022-08-22T02:08:44.770Z,1.93
2022-08-22T02:11:35.847Z,2.07
2022-08-22T02:14:32.902Z,2.10
2022-08-22T02:17:10.704Z,2.27
2022-08-22T02:20:20.884Z,1.70
2022-08-22T02:23:00.990Z,1.70
2022-08-22T02:25:45.940Z,1.90
2022-08-22T02:28:19.905Z,2.10
2022-08-22T02:31:02.577Z,1.87
2022-08-22T02:33:38.611Z,1.80
2022-08-22T02:36:43.781Z,2.50
2022-08-22T02:39:57.189Z,1.90
2022-08-22T02:42:27.810Z,1.90
2022-08-22T02:45:16.112Z,1.80
2022-08-22T02:47:52.844Z,1.80
2022-08-22T02:50:31.485Z,2.10
2022-08-22T02:53:21.145Z,2.10
2022-08-22T02:56:00.311Z,2.20
2022-08-22T02:58:45.528Z,2.00
2022-08-22T03:01:24.089Z,1.93
2022-08-22T03:04:12.496Z,2.00
2022-08-22T03:06:44.163Z,1.87
2022-08-22T03:09:14.328Z,1.80
2022-08-22T03:11:47.464Z,1.97
2022-08-22T03:14:24.761Z,1.80
2022-08-22T03:17:27.173Z,1.90
2022-08-22T03:20:19.267Z,2.00
2022-08-22T03:23:00.977Z,2.13
2022-08-22T03:25:41.518Z,1.87
2022-08-22T03:28:14.733Z,2.00
2022-08-22T03:30:56.412Z,2.07
2022-08-22T03:33:31.514Z,2.53
2022-08-22T03:36:04.895Z,1.90
2022-08-22T03:38:34.659Z,2.00
2022-08-22T03:41:41.876Z,2.30
2022-08-22T03:44:20.961Z,2.33
2022-08-22T03:47:07.772Z,2.37
2022-08-22T03:49:55.658Z,2.10
2022-08-22T03:52:56.975Z,2.30
2022-08-22T03:55:44.038Z,2.70
2022-08-22T03:58:49.548Z,2.20
2022-08-22T04:01:22.524Z,2.17
2022-08-22T04:04:04.480Z,2.50
2022-08-22T04:06:49.652Z,2.40
2022-08-22T04:09:42.980Z,2.90
2022-08-22T04:12:49.717Z,2.20
2022-08-22T04:16:06.626Z,2.10
2022-08-22T04:19:08.106Z,2.30
2022-08-22T04:21:47.977Z,2.67
2022-08-22T04:24:35.960Z,2.57
2022-08-22T04:27:10.649Z,2.50
2022-08-22T04:29:58.624Z,2.23
2022-08-22T04:32:41.193Z,3.00
2022-08-22T04:35:31.389Z,2.70
2022-08-22T04:38:40.430Z,2.77
2022-08-22T04:41:14.003Z,3.37
2022-08-22T04:44:07.861Z,2.50
2022-08-22T04:46:45.605Z,2.97
2022-08-22T04:49:14.892Z,2.77
2022-08-22T04:52:13.016Z,3.20
2022-08-22T04:55:18.274Z,2.63
2022-08-22T04:58:36.221Z,2.73
2022-08-22T05:01:31.980Z,2.63
2022-08-22T05:04:26.018Z,2.70
2022-08-22T05:07:32.400Z,2.70
2022-08-22T05:10:13.677Z,2.70
2022-08-22T05:13:00.525Z,2.70
2022-08-22T05:15:35.025Z,3.27
2022-08-22T05:18:34.942Z,3.10
2022-08-22T05:21:07.615Z,2.60
2022-08-22T05:23:43.329Z,3.20
2022-08-22T05:26:13.816Z,2.97
2022-08-22T05:28:52.905Z,2.80
2022-08-22T05:31:34.424Z,2.73
2022-08-22T05:34:15.100Z,2.80
2022-08-22T05:36:49.210Z,2.50
2022-08-22T05:39:25.328Z,2.67
2022-08-22T05:41:56.220Z,2.73
2022-08-22T05:44:28.313Z,2.77
2022-08-22T05:47:06.549Z,2.77
2022-08-22T05:49:42.589Z,2.93
2022-08-22T05:52:23.489Z,2.80
2022-08-22T05:55:28.792Z,2.63
2022-08-22T05:58:11.097Z,2.27
2022-08-22T06:00:42.900Z,2.20
2022-08-22T06:03:26.995Z,2.17
2022-08-22T06:05:59.232Z,2.10
2022-08-22T06:08:26.157Z,1.90
2022-08-22T06:10:57.067Z,1.73
2022-08-22T06:13:56.970Z,1.73
2022-08-22T06:16:48.506Z,1.87
2022-08-22T06:19:19.960Z,1.27
2022-08-22T06:21:50.859Z,1.40
2022-08-22T06:24:26.349Z,2.17
2022-08-22T06:26:57.348Z,1.23
2022-08-22T06:29:41.030Z,1.30
2022-08-22T06:32:15.061Z,1.30
2022-08-22T06:34:45.688Z,1.47
2022-08-22T06:37:22.041Z,1.23
2022-08-22T06:39:54.398Z,1.30
2022-08-22T06:42:28.484Z,1.17
2022-08-22T06:45:04.683Z,1.13
2022-08-22T06:47:41.312Z,1.20
2022-08-22T06:50:21.079Z,1.17
2022-08-22T06:53:03.207Z,1.50
2022-08-22T06:55:30.685Z,1.10
2022-08-22T06:58:07.580Z,1.20
2022-08-22T07:00:35.860Z,1.03
2022-08-22T07:03:21.582Z,1.27
2022-08-22T07:05:50.101Z,1.17
2022-08-22T07:08:21.486Z,1.00
2022-08-22T07:11:10.563Z,1.37
2022-08-22T07:13:42.977Z,1.00
2022-08-22T07:16:10.998Z,1.10
2022-08-22T07:18:49.212Z,1.00
2022-08-22T07:21:42.765Z,0.90
2022-08-22T07:24:13.597Z,1.00
2022-08-22T07:27:06.159Z,0.80
2022-08-22T07:29:49.624Z,1.00
2022-08-22T07:32:29.064Z,0.80
2022-08-22T07:35:11.951Z,0.90
2022-08-22T07:37:42.074Z,1.00
2022-08-22T07:40:17.995Z,0.97
2022-08-22T07:43:06.988Z,0.90
2022-08-22T07:45:47.452Z,1.00
2022-08-22T07:48:26.322Z,0.90
2022-08-22T07:51:28.765Z,0.77
2022-08-22T07:54:29.698Z,0.70
2022-08-22T07:57:22.339Z,0.83
2022-08-22T08:00:13.569Z,1.00
2022-08-22T08:03:16.086Z,0.70
2022-08-22T08:06:04.887Z,0.73
2022-08-22T08:09:01.302Z,0.73
2022-08-22T08:11:53.729Z,0.70
2022-08-22T08:14:43.635Z,0.93
2022-08-22T08:17:42.173Z,0.80
2022-08-22T08:20:32.876Z,1.00
2022-08-22T08:23:23.721Z,0.60
2022-08-22T08:26:15.972Z,0.67
2022-08-22T08:29:09.496Z,0.70
2022-08-22T08:31:59.953Z,0.60
2022-08-22T08:34:48.508Z,0.60
2022-08-22T08:37:24.921Z,0.70
2022-08-22T08:39:57.223Z,0.80
2022-08-22T08:43:00.420Z,0.53
2022-08-22T08:46:05.823Z,0.67
2022-08-22T08:49:11.902Z,0.63
2022-08-22T08:52:14.152Z,0.80
2022-08-22T08:55:00.392Z,0.43
2022-08-22T08:58:06.727Z,0.40
2022-08-22T09:00:50.213Z,0.50
2022-08-22T09:04:01.493Z,0.40
2022-08-22T09:07:06.785Z,0.80
2022-08-22T09:10:23.099Z,0.60
2022-08-22T09:14:00.352Z,0.40
2022-08-22T09:17:02.910Z,0.60
2022-08-22T09:20:19.507Z,0.37
2022-08-22T09:23:53.244Z,0.50
2022-08-22T09:27:08.536Z,0.50
2022-08-22T09:30:04.658Z,0.40
2022-08-22T09:33:13.065Z,0.40
2022-08-22T09:36:22.202Z,0.50
2022-08-22T09:39:34.656Z,0.50
2022-08-22T09:42:14.781Z,0.43
2022-08-22T09:45:20.410Z,0.50
2022-08-22T09:48:23.888Z,0.50
2022-08-22T09:51:33.184Z,0.60
2022-08-22T09:54:47.964Z,0.40
2022-08-22T09:57:38.760Z,0.50
2022-08-22T10:00:25.849Z,0.30
2022-08-22T10:03:32.392Z,0.40
2022-08-22T10:06:33.315Z,0.50
2022-08-22T10:09:41.108Z,0.30
2022-08-22T10:12:44.806Z,0.30
2022-08-22T10:15:43.359Z,0.20
2022-08-22T10:18:16.743Z,0.20
2022-08-22T10:21:05.247Z,0.30
2022-08-22T10:23:56.231Z,0.20
2022-08-22T10:26:49.222Z,0.20
2022-08-22T10:29:38.245Z,0.20
2022-08-22T10:32:39.009Z,0.20
2022-08-22T10:35:33.965Z,0.20
2022-08-22T10:38:14.383Z,0.30
2022-08-22T10:40:50.192Z,0.73
2022-08-22T10:44:03.884Z,0.20
2022-08-22T10:46:46.216Z,0.23
2022-08-22T10:49:42.632Z,0.20
2022-08-22T10:52:35.867Z,0.20
2022-08-22T10:55:09.860Z,0.20
2022-08-22T10:58:33.925Z,0.20
2022-08-22T11:01:38.155Z,0.20
2022-08-22T11:04:12.271Z,0.10
2022-08-22T11:07:24.823Z,0.10
2022-08-22T11:10:21.842Z,0.10
2022-08-22T11:13:32.994Z,0.10
2022-08-22T11:16:36.726Z,0.00
2022-08-22T11:20:03.697Z,0.10
2022-08-22T11:23:05.688Z,0.40
2022-08-22T11:25:39.002Z,0.20
2022-08-22T11:28:23.989Z,0.00
2022-08-22T11:31:31.743Z,0.10
2022-08-22T11:34:14.584Z,0.10
2022-08-22T11:36:53.378Z,0.30
2022-08-22T11:39:38.073Z,0.40
2022-08-22T11:42:23.706Z,0.30
2022-08-22T11:44:55.705Z,0.10
2022-08-22T11:47:30.268Z,0.10
2022-08-22T11:50:14.086Z,0.20
2022-08-22T11:53:04.564Z,0.17
2022-08-22T11:55:50.824Z,0.10
2022-08-22T11:58:43.700Z,0.10
2022-08-22T12:01:34.318Z,0.20
2022-08-22T12:04:51.000Z,0.40
2022-08-22T12:07:49.049Z,0.10
2022-08-22T12:10:44.540Z,0.20
2022-08-22T12:13:48.184Z,0.10
2022-08-22T12:16:58.793Z,0.10
2022-08-22T12:20:14.614Z,0.20
2022-08-22T12:23:48.968Z,0.10
2022-08-22T12:26:54.876Z,0.10
2022-08-22T12:29:52.308Z,0.20
2022-08-22T12:32:53.725Z,0.10
2022-08-22T12:35:49.421Z,0.20
2022-08-22T12:38:38.050Z,0.23
2022-08-22T12:41:40.507Z,0.20
2022-08-22T12:44:50.307Z,0.13
2022-08-22T12:47:44.888Z,0.10
2022-08-22T12:51:18.247Z,0.13
2022-08-22T12:54:31.469Z,0.10
2022-08-22T12:57:45.966Z,0.10
2022-08-22T13:00:30.833Z,0.20
2022-08-22T13:03:07.429Z,0.10
2022-08-22T13:05:40.517Z,0.10
2022-08-22T13:08:35.929Z,0.10
2022-08-22T13:11:30.869Z,0.10
2022-08-22T13:14:25.873Z,0.20
2022-08-22T13:17:24.953Z,0.20
2022-08-22T13:20:28.269Z,0.10
2022-08-22T13:23:16.165Z,0.30
2022-08-22T13:26:33.771Z,0.10
2022-08-22T13:29:39.158Z,0.20
2022-08-22T13:32:44.479Z,0.20
2022-08-22T13:35:44.669Z,0.20
2022-08-22T13:39:05.294Z,0.20
2022-08-22T13:41:59.463Z,0.20
2022-08-22T13:45:02.522Z,0.20
2022-08-22T13:47:53.014Z,0.20
2022-08-22T13:50:53.648Z,0.20
2022-08-22T13:54:11.060Z,0.20
2022-08-22T13:57:17.660Z,0.20
2022-08-22T14:00:25.423Z,0.20
2022-08-22T14:03:41.285Z,0.10
2022-08-22T14:06:56.979Z,0.13
2022-08-22T14:10:33.280Z,0.10
2022-08-22T14:13:20.968Z,0.20
2022-08-22T14:16:10.417Z,0.10
2022-08-22T14:19:06.181Z,0.20
2022-08-22T14:22:07.240Z,0.30
2022-08-22T14:25:07.899Z,0.27
2022-08-22T14:28:09.835Z,0.27
2022-08-22T14:31:16.924Z,0.20
2022-08-22T14:34:22.860Z,0.20
2022-08-22T14:37:20.378Z,0.20
2022-08-22T14:40:13.676Z,0.20
2022-08-22T14:42:45.164Z,0.20
2022-08-22T14:45:38.149Z,0.20
2022-08-22T14:48:31.599Z,0.20
2022-08-22T14:51:17.265Z,0.20
2022-08-22T14:53:44.332Z,0.27
2022-08-22T14:56:17.992Z,0.20
2022-08-22T14:58:58.311Z,0.20
2022-08-22T15:01:29.983Z,0.20
2022-08-22T15:04:10.046Z,0.40
2022-08-22T15:06:57.849Z,0.30
2022-08-22T15:09:54.288Z,0.60
2022-08-22T15:12:48.736Z,0.20
2022-08-22T15:15:58.309Z,0.30
2022-08-22T15:18:51.747Z,0.50
2022-08-22T15:21:43.756Z,0.23
2022-08-22T15:24:33.817Z,0.40
2022-08-22T15:27:20.958Z,0.30
2022-08-22T15:30:20.435Z,0.20
2022-08-22T15:33:08.800Z,0.20
2022-08-22T15:35:56.613Z,0.20
2022-08-22T15:38:53.414Z,0.37
2022-08-22T15:41:55.248Z,0.20
2022-08-22T15:44:44.237Z,0.63
2022-08-22T15:47:47.710Z,0.40
2022-08-22T15:50:49.212Z,0.33
2022-08-22T15:53:41.831Z,0.40
2022-08-22T15:56:31.657Z,0.37
2022-08-22T15:59:48.193Z,0.20
2022-08-22T16:02:53.040Z,0.30
2022-08-22T16:06:01.813Z,0.30
2022-08-22T16:08:52.040Z,0.50
2022-08-22T16:11:57.287Z,0.30
2022-08-22T16:15:05.889Z,0.30
2022-08-22T16:18:03.300Z,0.30
2022-08-22T16:20:53.419Z,0.33
2022-08-22T16:23:40.733Z,0.30
2022-08-22T16:26:29.625Z,0.20
2022-08-22T16:29:23.582Z,0.40
2022-08-22T16:32:10.368Z,0.20
2022-08-22T16:34:57.306Z,0.47
2022-08-22T16:38:00.589Z,0.43
2022-08-22T16:40:47.753Z,0.13
2022-08-22T16:43:20.061Z,0.30
2022-08-22T16:45:48.658Z,0.30
2022-08-22T16:48:25.927Z,0.40
2022-08-22T16:51:18.756Z,0.40
2022-08-22T16:54:04.192Z,0.40
2022-08-22T16:57:01.007Z,0.40
2022-08-22T16:59:42.033Z,0.40
2022-08-22T17:02:33.444Z,0.40
2022-08-22T17:05:09.649Z,0.20
2022-08-22T17:07:36.858Z,0.10
2022-08-22T17:10:30.875Z,0.20
2022-08-22T17:12:57.749Z,0.20
2022-08-22T17:15:39.936Z,0.40
2022-08-22T17:18:29.887Z,0.27
2022-08-22T17:21:14.804Z,0.40
2022-08-22T17:23:50.747Z,0.30
2022-08-22T17:26:45.797Z,0.30
2022-08-22T17:29:41.976Z,0.40
2022-08-22T17:32:15.199Z,0.30
2022-08-22T17:34:57.402Z,0.50
2022-08-22T17:37:43.366Z,0.40
2022-08-22T17:40:38.505Z,0.60
2022-08-22T17:43:05.583Z,0.40
2022-08-22T17:45:35.676Z,0.40
2022-08-22T17:48:07.940Z,0.40
2022-08-22T17:50:45.093Z,0.50
2022-08-22T17:53:22.336Z,0.40
2022-08-22T17:56:03.288Z,0.40
2022-08-22T17:58:43.650Z,0.33
2022-08-22T18:01:35.849Z,0.73
2022-08-22T18:04:07.053Z,0.60
2022-08-22T18:06:38.857Z,0.40
2022-08-22T18:09:17.888Z,0.40
2022-08-22T18:11:56.018Z,0.30
2022-08-22T18:14:44.181Z,0.47
2022-08-22T18:17:41.479Z,0.53
2022-08-22T18:20:26.132Z,0.43
2022-08-22T18:23:02.369Z,0.70
2022-08-22T18:25:31.894Z,0.30
2022-08-22T18:28:12.813Z,0.40
2022-08-22T18:30:48.693Z,0.40
2022-08-22T18:33:35.912Z,0.90
2022-08-22T18:36:10.828Z,0.50
2022-08-22T18:39:05.448Z,0.40
2022-08-22T18:41:57.423Z,0.40
2022-08-22T18:44:28.771Z,0.37
2022-08-22T18:47:24.789Z,0.40
2022-08-22T18:49:54.835Z,0.30
2022-08-22T18:52:27.840Z,0.40
2022-08-22T18:55:27.720Z,0.30
2022-08-22T18:58:32.519Z,0.23
2022-08-22T19:01:17.912Z,0.40
2022-08-22T19:04:03.749Z,0.30
2022-08-22T19:06:47.748Z,0.50
2022-08-22T19:09:21.085Z,0.23
2022-08-22T19:12:01.685Z,0.50
2022-08-22T19:14:43.605Z,0.40
2022-08-22T19:17:58.960Z,0.40
2022-08-22T19:20:47.480Z,0.53
2022-08-22T19:23:32.908Z,0.50
2022-08-22T19:26:27.865Z,0.40
2022-08-22T19:29:25.794Z,0.30
2022-08-22T19:31:59.905Z,0.50
2022-08-22T19:34:30.921Z,0.40
2022-08-22T19:37:30.750Z,0.50
2022-08-22T19:40:10.022Z,0.50
2022-08-22T19:42:43.348Z,0.30
2022-08-22T19:45:26.675Z,0.50
2022-08-22T19:47:59.646Z,0.40
2022-08-22T19:50:33.114Z,0.50
2022-08-22T19:53:16.688Z,0.40
2022-08-22T19:56:02.723Z,0.40
2022-08-22T19:58:35.494Z,0.60
2022-08-22T20:01:44.016Z,0.50
2022-08-22T20:04:37.114Z,0.70
2022-08-22T20:07:38.321Z,0.83
2022-08-22T20:10:26.009Z,0.53
2022-08-22T20:13:18.557Z,0.73
2022-08-22T20:16:27.069Z,0.60
2022-08-22T20:19:06.386Z,0.73
2022-08-22T20:21:41.283Z,0.43
2022-08-22T20:24:25.609Z,0.67
2022-08-22T20:27:13.502Z,0.60
2022-08-22T20:29:46.616Z,0.63
2022-08-22T20:32:16.857Z,0.90
2022-08-22T20:34:45.672Z,0.70
2022-08-22T20:37:32.426Z,0.57
2022-08-22T20:40:25.733Z,0.60
2022-08-22T20:43:23.617Z,0.60
2022-08-22T20:46:24.327Z,0.80
2022-08-22T20:48:54.813Z,0.60
2022-08-22T20:51:27.725Z,0.60
2022-08-22T20:53:57.186Z,0.67
2022-08-22T20:57:01.459Z,0.80
2022-08-22T20:59:37.997Z,0.80
2022-08-22T21:02:19.060Z,0.77
2022-08-22T21:04:52.924Z,1.37
2022-08-22T21:07:26.215Z,1.13
2022-08-22T21:10:22.260Z,1.53
2022-08-22T21:13:07.754Z,1.13
2022-08-22T21:15:41.794Z,1.23
2022-08-22T21:18:10.732Z,0.70
2022-08-22T21:20:39.001Z,1.00
2022-08-22T21:23:12.125Z,1.00
2022-08-22T21:26:02.157Z,1.10
2022-08-22T21:28:33.497Z,1.00
2022-08-22T21:31:09.773Z,1.17
2022-08-22T21:33:42.733Z,1.03
2022-08-22T21:36:12.521Z,0.90
2022-08-22T21:39:00.729Z,1.00
2022-08-22T21:41:59.572Z,1.40
2022-08-22T21:44:40.439Z,0.90
2022-08-22T21:47:37.692Z,1.17
2022-08-22T21:50:26.765Z,1.00
2022-08-22T21:52:53.707Z,0.80
2022-08-22T21:55:43.649Z,0.80
2022-08-22T21:58:35.677Z,1.00
2022-08-22T22:01:27.937Z,1.03
2022-08-22T22:03:55.591Z,0.80
2022-08-22T22:06:22.503Z,0.93
2022-08-22T22:08:49.678Z,0.77
2022-08-22T22:11:17.323Z,1.10
2022-08-22T22:13:45.295Z,1.00
2022-08-22T22:16:13.200Z,0.90
2022-08-22T22:18:40.686Z,0.90
2022-08-22T22:21:09.422Z,1.00
2022-08-22T22:23:36.411Z,1.00
2022-08-22T22:26:05.298Z,0.87
2022-08-22T22:28:36.704Z,1.07
2022-08-22T22:31:04.484Z,0.90
2022-08-22T22:33:34.540Z,0.90
2022-08-22T22:36:10.040Z,0.87
2022-08-22T22:38:38.746Z,1.40
2022-08-22T22:41:05.794Z,1.00
2022-08-22T22:43:32.881Z,1.07
2022-08-22T22:46:00.032Z,1.30
2022-08-22T22:48:27.164Z,1.13
2022-08-22T22:50:55.228Z,1.27
2022-08-22T22:53:33.768Z,1.47
2022-08-22T22:56:09.908Z,1.10
2022-08-22T22:58:38.075Z,1.00
2022-08-22T23:01:12.868Z,1.07
2022-08-22T23:03:40.072Z,0.90
2022-08-22T23:06:12.172Z,1.20
2022-08-22T23:08:39.708Z,1.10
2022-08-22T23:11:15.784Z,1.20
2022-08-22T23:13:43.307Z,1.10
2022-08-22T23:16:17.153Z,1.30
2022-08-22T23:18:44.732Z,1.10
2022-08-22T23:21:20.221Z,1.00
2022-08-22T23:23:48.301Z,1.40
2022-08-22T23:26:16.267Z,1.20
2022-08-22T23:28:43.686Z,0.97
2022-08-22T23:31:18.486Z,1.30
2022-08-22T23:33:46.321Z,1.20
2022-08-22T23:36:16.058Z,1.20
2022-08-22T23:38:43.964Z,1.00
2022-08-22T23:41:12.700Z,1.07
2022-08-22T23:43:45.138Z,1.10
2022-08-22T23:46:14.188Z,1.10
2022-08-22T23:48:41.764Z,1.20
2022-08-22T23:51:13.680Z,0.90
2022-08-22T23:53:41.382Z,0.70
2022-08-22T23:56:19.309Z,0.90
2022-08-22T23:58:49.029Z,0.90
